Gran Canaria > ESTACION METEOROLÓGICA Villa de Moya

DATOS ACTUALES Online

Ultima actulizacion 50 minutos

17.8 ºC

Temperatura

53

Humedad (%)

963.77

Presión (mb)

0

Precipitación (mm)

8.8 NW

Viento (Km/h)

DATOS DIARIOS

Temperatura últimas 24 horas (ºC)

Humedad últimas 24 horas (%)

Presión atmosférica últimas 24 horas (mb)

Precipitaciones últimas 23 horas (mm)

Viento últimas 24 horas (Km/h)

Hora Temperatura (°C) ºC Precipitación (mm) mm Presión (mb) mb Humedad (%) % Viento (Km/h) km/h
19 - 11:00 17.3 1 964 78 8.8 N
19 - 12:00 17.8 1 963 77 8.1 NW
19 - 13:00 17.7 1 962 76 10.7 W
19 - 14:00 19.1 1 962 67 15.8 W
19 - 15:00 18.5 1 962 68 12.4 W
19 - 16:00 18 1 962 69 12.1 W
19 - 17:00 18.2 1 961 69 5.8 NW
19 - 18:00 15.5 1 962 78 16.6 S
19 - 19:00 14.7 1 963 66 14.5 S
19 - 20:00 14.2 1 963 65 17.1 S
19 - 21:00 16.3 1 963 49 20.7 S
19 - 22:00 16.3 1 963 53 29.8 SO
19 - 23:00 17.1 1 964 48 17.1 SO
20 - 00:00 15.5 0 964 53 10.7 S
20 - 01:00 15.5 0 963 55 9.4 S
20 - 02:00 15.1 0 962 57 9.3 SW
20 - 03:00 15.5 0 962 58 15.3 NW
20 - 04:00 14.1 0 962 58 11.7 S
20 - 05:00 15.9 0 962 46 18.5 SW
20 - 06:00 16.9 0 962 38 27.3 S
20 - 07:00 16.8 0 962 37 22.4 S
20 - 08:00 16.4 0 963 47 7.2 W
20 - 09:00 15.5 0 963 52 13.4 S
20 - 10:00 17.8 0 964 53 8.8 NW
20 - 11:00
Apalmet utiliza cookies propias y de terceros para mejorar la usabilidad y la experiencia web. Política de cookies.